Latest Weather Observations for Albury

IDV60801

Issued at 4:03 pm EST Saturday 27 May 2017 (issued every 30 minutes, with the page automatically refreshed every 10 minutes)

About weather observations | Map of weather stations | Latest weather observations for VIC | Other Formats
Station Details ID: 072160 Name: ALBURY AIRPORT AWS Lat: -36.07 Lon: 146.95 Height: 163.5 m
Data from the previous 72 hours. | See also: Recent months at Albury
Date/Time
EST
Temp
°C
App
Temp
°C
Dew
Point
°C
Rel
Hum
%
Delta-T
°C
Wind Press
QNH
hPa
Press
MSL
hPa
Rain since
9am
mm
Dir  Spd
km/h
Gust
km/h
Spd
kts
Gust
kts
27/04:00pm 16.2 14.2 10.3 68 3.1 NE 11 13 6 7 1016.2 1016.2 0.0
27/03:30pm 16.9 14.9 10.1 64 3.6 NNE 11 17 6 9 1016.3 1016.3 0.0
27/03:00pm 16.5 14.3 9.4 63 3.7 NNE 11 15 6 8 1016.4 1016.4 0.0
27/02:30pm 17.0 14.6 9.9 63 3.8 ENE 13 19 7 10 1016.5 1016.5 0.0
27/02:00pm 16.3 14.1 9.5 64 3.6 ENE 11 15 6 8 1017.0 1017.0 0.0
27/01:30pm 17.0 15.3 9.9 63 3.8 NNE 9 17 5 9 1017.6 1017.7 0.0
27/01:00pm 16.4 14.9 10.5 68 3.1 E 9 15 5 8 1018.0 1018.1 0.0
27/12:30pm 15.8 14.5 10.1 69 3.0 ESE 7 11 4 6 1018.5 1018.6 0.0
27/12:00pm 15.6 13.5 9.7 68 3.1 ENE 11 17 6 9 1019.1 1019.2 0.0
27/11:30am 14.6 12.4 9.4 71 2.7 ENE 11 15 6 8 1019.8 1019.9 0.0
27/11:00am 13.6 12.1 10.4 81 1.7 ESE 9 15 5 8 1020.5 1020.6 0.0
27/10:30am 12.9 10.9 10.3 84 1.4 ENE 11 13 6 7 1020.9 1021.0 0.0
27/10:24am 12.4 10.3 9.8 84 1.3 ENE 11 15 6 8 1021.0 1021.1 0.0
27/10:00am 11.6 10.3 10.0 90 0.8 E 7 11 4 6 1021.3 1021.4 0.0
27/09:33am 11.5 11.1 9.6 88 1.0 ESE 2 7 1 4 1021.3 1021.4 0.0
27/09:30am 11.5 10.6 9.4 87 1.1 E 4 7 2 4 1021.3 1021.4 0.0
27/09:25am 12.2 11.5 9.9 86 1.2 ENE 4 7 2 4 1021.3 1021.4 0.0
27/09:00am 11.4 10.5 10.5 94 0.5 ENE 6 9 3 5 1021.2 1021.3 0.0
27/08:45am 10.6 9.2 9.5 93 0.6 ENE 7 11 4 6 1021.3 1021.4 0.0
27/08:30am 10.7 9.8 10.5 99 0.1 NE 6 9 3 5 1021.3 1021.4 0.0
27/08:00am 8.1 7.7 8.1 100 0.0 CALM 0 2 0 1 1021.4 1021.5 0.0
27/07:38am 7.8 6.5 7.8 100 0.0 E 4 6 2 3 1021.4 1021.5 0.0
27/07:30am 7.9 6.7 7.9 100 0.0 E 4 6 2 3 1021.4 1021.5 0.0
27/07:00am 9.1 7.8 9.1 100 0.0 NE 6 7 3 4 1021.3 1021.4 0.0
27/06:30am 7.4 6.4 7.4 100 0.0 NNE 2 7 1 4 1021.1 1021.2 0.0
27/06:15am 7.7 7.2 7.7 100 0.0 CALM 0 0 0 0 1020.9 1021.0 0.0
27/06:00am 6.7 5.9 6.7 100 0.0 CALM 0 0 0 0 1020.9 1021.0 0.0
27/05:47am 6.5 5.7 6.5 100 0.0 CALM 0 0 0 0 1020.8 1020.9 0.0
27/05:35am 7.0 6.3 7.0 100 0.0 CALM 0 0 0 0 1020.8 1020.9 0.0
27/05:30am 7.2 6.6 7.2 100 0.0 CALM 0 0 0 0 1020.8 1020.9 0.0
27/05:24am 6.9 6.2 6.9 100 0.0 CALM 0 0 0 0 1020.9 1021.0 0.0
27/05:21am 6.8 6.1 6.8 100 0.0 CALM 0 0 0 0 1020.8 1020.9 0.0
27/05:00am 7.2 6.6 7.2 100 0.0 CALM 0 0 0 0 1021.0 1021.1 0.0
27/04:53am 7.1 6.4 7.1 100 0.0 CALM 0 0 0 0 1021.0 1021.1 0.0
27/04:41am 6.7 5.9 6.7 100 0.0 CALM 0 0 0 0 1021.0 1021.1 0.0
27/04:30am 6.4 5.6 6.4 100 0.0 CALM 0 0 0 0 1021.0 1021.1 0.0
27/04:00am 7.7 7.2 7.7 100 0.0 CALM 0 0 0 0 1021.1 1021.2 0.0
27/03:30am 8.3 7.9 8.3 100 0.0 CALM 0 0 0 0 1021.2 1021.3 0.0
27/03:04am 8.5 7.0 8.5 100 0.0 NW 6 9 3 5 1021.4 1021.5 0.0
27/03:00am 8.5 6.8 8.5 100 0.0 NW 7 9 4 5 1021.5 1021.6 0.0
27/02:30am 9.3 9.2 9.3 100 0.0 CALM 0 0 0 0 1021.6 1021.7 0.0
27/02:00am 9.7 9.7 9.7 100 0.0 CALM 0 0 0 0 1021.8 1021.9 0.0
27/01:30am 9.5 9.4 9.5 100 0.0 CALM 0 0 0 0 1021.9 1022.0 0.0
27/01:00am 9.4 9.3 9.4 100 0.0 CALM 0 0 0 0 1021.9 1022.0 0.0
27/12:30am 9.2 8.7 9.2 100 0.0 WSW 2 7 1 4 1022.3 1022.3 0.0
27/12:00am 9.0 8.0 9.0 100 0.0 WNW 4 9 2 5 1022.3 1022.3 0.0
 
Date/Time
EST
Temp
°C
App
Temp
°C
Dew
Point
°C
Rel
Hum
%
Delta-T
°C
Wind Press
QNH
hPa
Press
MSL
hPa
Rain since
9am
mm
Dir  Spd
km/h
Gust
km/h
Spd
kts
Gust
kts
26/11:30pm 9.2 9.0 9.2 100 0.0 CALM 0 0 0 0 1022.3 1022.3 0.0
26/11:00pm 9.3 9.2 9.3 100 0.0 CALM 0 0 0 0 1022.2 1022.2 0.0
26/10:30pm 8.9 8.7 8.9 100 0.0 CALM 0 0 0 0 1022.4 1022.5 0.0
26/10:20pm 8.7 8.4 8.7 100 0.0 CALM 0 0 0 0 1022.4 1022.5 0.0
26/10:00pm 8.0 7.5 8.0 100 0.0 CALM 0 0 0 0 1022.3 1022.3 0.0
26/09:36pm 9.1 7.8 9.1 100 0.0 NNW 6 9 3 5 1022.2 1022.2 0.0
26/09:30pm 8.7 8.0 8.7 100 0.0 NNW 2 9 1 5 1022.2 1022.2 0.0
26/09:22pm 8.8 8.5 8.8 100 0.0 CALM 0 0 0 0 1022.2 1022.2 0.0
26/09:13pm 9.1 8.9 9.1 100 0.0 CALM 0 0 0 0 1022.2 1022.2 0.0
26/09:00pm 8.7 8.3 8.4 98 0.1 CALM 0 0 0 0 1022.2 1022.2 0.0
26/08:53pm 8.3 7.8 8.0 98 0.1 CALM 0 0 0 0 1022.0 1022.1 0.0
26/08:30pm 9.4 9.3 9.3 99 0.0 CALM 0 0 0 0 1021.9 1022.0 0.0
26/08:02pm 9.5 9.3 9.0 97 0.2 CALM 0 0 0 0 1021.7 1021.8 0.0
26/08:00pm 9.8 9.7 9.5 98 0.2 CALM 0 0 0 0 1021.7 1021.8 0.0
26/07:51pm 9.5 9.3 9.0 97 0.2 CALM 0 0 0 0 1021.7 1021.8 0.0
26/07:30pm 10.0 9.8 9.2 95 0.4 CALM 0 0 0 0 1021.7 1021.8 0.0
26/07:00pm 11.0 11.0 9.8 92 0.6 CALM 0 0 0 0 1021.6 1021.7 0.0
26/06:30pm 11.6 11.7 10.2 91 0.7 CALM 0 0 0 0 1021.6 1021.7 0.0
26/06:00pm 11.7 11.7 9.8 88 1.0 CALM 0 0 0 0 1021.5 1021.6 0.0
26/05:30pm 13.1 12.0 10.6 85 1.3 ESE 7 9 4 5 1021.3 1021.4 0.0
26/05:00pm 14.1 13.5 10.3 78 2.0 ESE 4 9 2 5 1021.3 1021.4 0.0
26/04:30pm 14.6 13.4 10.2 75 2.3 SE 7 9 4 5 1021.3 1021.4 0.0
26/04:00pm 15.1 13.6 10.5 74 2.4 ESE 9 9 5 5 1021.4 1021.5 0.0
26/03:30pm 15.3 14.4 10.5 73 2.6 E 6 9 3 5 1021.4 1021.5 0.0
26/03:00pm 15.3 13.8 10.5 73 2.5 ESE 9 11 5 6 1021.2 1021.3 0.0
26/02:30pm 15.3 13.9 10.9 75 2.4 ESE 9 15 5 8 1021.3 1021.4 0.0
26/02:00pm 15.3 14.2 10.7 74 2.4 ENE 7 13 4 7 1021.6 1021.7 0.0
26/01:44pm 15.4 14.5 10.8 74 2.5 ENE 6 9 3 5 1021.7 1021.8 0.0
26/01:30pm 15.4 14.5 11.2 76 2.3 ESE 7 13 4 7 1021.8 1021.9 0.0
26/01:20pm 15.1 14.0 10.5 74 2.4 SE 7 11 4 6 1021.9 1022.0 0.0
26/01:16pm 15.0 13.9 10.6 75 2.3 SE 7 11 4 6 1021.9 1022.0 0.0
26/01:00pm 15.4 14.4 11.0 75 2.4 ENE 7 15 4 8 1022.2 1022.2 0.0
26/12:41pm 15.2 13.8 10.8 75 2.4 ENE 9 15 5 8 1022.4 1022.5 0.0
26/12:30pm 15.0 14.1 10.6 75 2.3 ESE 6 9 3 5 1022.5 1022.6 0.0
26/12:00pm 14.8 14.6 10.6 76 2.2 ESE 2 7 1 4 1022.9 1023.0 0.0
26/11:30am 14.4 13.4 10.2 76 2.2 SE 6 9 3 5 1023.4 1023.5 0.0
26/11:13am 14.4 14.6 10.6 78 2.0 CALM 0 0 0 0 1023.6 1023.7 0.0
26/11:00am 13.9 13.6 10.1 78 2.0 N 2 6 1 3 1023.7 1023.8 0.0
26/10:30am 14.0 13.0 10.4 79 1.9 NE 6 11 3 6 1023.8 1023.9 0.0
26/10:21am 13.9 12.3 10.3 79 1.9 E 9 13 5 7 1023.9 1024.0 0.0
26/10:00am 13.7 12.2 10.5 81 1.7 E 9 13 5 7 1023.9 1024.0 0.0
26/09:30am 13.1 11.6 10.5 84 1.4 NNE 9 13 5 7 1024.0 1024.1 0.0
26/09:00am 11.7 10.6 10.6 93 0.6 NE 7 11 4 6 1023.9 1024.0 0.0
26/08:30am 11.4 10.3 10.5 94 0.5 ENE 7 9 4 5 1023.8 1023.9 0.0
26/08:00am 11.0 11.3 11.0 100 0.0 CALM 0 0 0 0 1023.6 1023.7 0.0
26/07:30am 10.8 9.9 10.8 100 0.0 N 6 7 3 4 1023.3 1023.4 0.0
26/07:00am 10.6 10.8 10.6 100 0.0 CALM 0 0 0 0 1023.1 1023.2 0.0
26/06:30am 10.4 10.6 10.4 100 0.0 CALM 0 0 0 0 1023.0 1023.1 0.0
26/06:00am 10.4 9.4 10.4 100 0.0 SSE 6 7 3 4 1022.6 1022.7 0.0
26/05:30am 10.3 9.3 10.3 100 0.0 SE 6 7 3 4 1022.4 1022.5 0.0
26/05:00am 10.4 9.4 10.4 100 0.0 ENE 6 7 3 4 1022.2 1022.2 0.0
26/04:30am 10.7 9.6 10.7 100 0.0 ENE 7 9 4 5 1022.0 1022.1 0.0
26/04:00am 10.9 11.2 10.9 100 0.0 CALM 0 0 0 0 1022.2 1022.2 0.0
26/03:30am 10.5 9.9 10.5 100 0.0 SW 4 6 2 3 1022.2 1022.2 0.0
26/03:00am 10.4 10.6 10.4 100 0.0 CALM 0 0 0 0 1022.0 1022.1 0.0
26/02:30am 10.5 10.7 10.5 100 0.0 CALM 0 6 0 3 1022.2 1022.2 0.0
26/02:00am 10.6 10.8 10.6 100 0.0 CALM 0 0 0 0 1022.2 1022.2 0.0
26/01:30am 10.6 10.1 10.6 100 0.0 SSE 4 7 2 4 1022.2 1022.2 0.0
26/01:00am 10.7 10.1 10.5 99 0.1 ENE 4 6 2 3 1022.2 1022.2 0.0
26/12:30am 10.8 11.0 10.5 98 0.2 CALM 0 0 0 0 1022.3 1022.3 0.0
26/12:00am 10.9 11.1 10.7 99 0.1 CALM 0 0 0 0 1022.6 1022.7 0.0
 
Date/Time
EST
Temp
°C
App
Temp
°C
Dew
Point
°C
Rel
Hum
%
Delta-T
°C
Wind Press
QNH
hPa
Press
MSL
hPa
Rain since
9am
mm
Dir  Spd
km/h
Gust
km/h
Spd
kts
Gust
kts
25/11:30pm 10.8 11.0 10.5 98 0.2 CALM 0 0 0 0 1022.6 1022.7 0.0
25/11:00pm 10.8 9.7 10.6 99 0.1 NNE 7 11 4 6 1022.5 1022.6 0.0
25/10:30pm 10.8 11.0 10.5 98 0.2 CALM 0 0 0 0 1022.6 1022.7 0.0
25/10:00pm 10.5 10.6 10.0 97 0.3 CALM 0 0 0 0 1022.6 1022.7 0.0
25/09:30pm 10.7 9.7 10.4 98 0.2 S 6 7 3 4 1022.5 1022.6 0.0
25/09:00pm 10.3 9.0 9.2 93 0.5 ENE 6 7 3 4 1022.5 1022.6 0.0
25/08:30pm 11.4 11.5 10.1 92 0.7 CALM 0 0 0 0 1022.6 1022.7 0.0
25/08:00pm 11.4 11.5 10.0 91 0.7 CALM 0 7 0 4 1022.5 1022.6 0.0
25/07:30pm 11.6 10.6 10.2 91 0.7 NNE 6 9 3 5 1022.4 1022.5 0.0
25/07:00pm 12.0 12.0 9.7 86 1.2 CALM 0 0 0 0 1022.5 1022.6 0.0
25/06:30pm 12.2 11.1 9.9 86 1.2 NE 6 7 3 4 1022.4 1022.5 0.0
25/06:00pm 12.4 11.3 9.8 84 1.3 N 6 7 3 4 1022.3 1022.3 0.0
25/05:30pm 12.3 12.3 9.9 85 1.2 CALM 0 0 0 0 1022.0 1022.1 0.0
25/05:00pm 12.5 12.4 9.5 82 1.5 CALM 0 0 0 0 1022.0 1022.1 0.0
25/04:30pm 12.6 11.2 9.6 82 1.5 WNW 7 11 4 6 1022.2 1022.2 0.0
25/04:00pm 12.6 10.8 9.6 82 1.5 W 9 13 5 7 1022.2 1022.2 0.0
25/03:49pm 12.7 11.4 10.1 84 1.3 WNW 7 11 4 6 1022.2 1022.2 0.0
25/03:30pm 12.4 9.5 9.8 84 1.3 WNW 15 19 8 10 1022.0 1022.1 0.0
25/03:18pm 12.8 10.3 9.8 82 1.5 W 13 20 7 11 1022.0 1022.1 0.0
25/03:00pm 13.5 11.3 9.4 76 2.1 NW 11 15 6 8 1021.9 1022.0 0.0
25/02:30pm 13.5 11.3 9.4 76 2.1 W 11 17 6 9 1021.9 1022.0 0.0
25/02:17pm 13.3 10.6 9.0 75 2.2 WNW 13 17 7 9 1022.0 1022.1 0.0
25/02:00pm 13.4 11.6 9.3 76 2.1 W 9 13 5 7 1022.2 1022.2 0.0
25/01:50pm 13.5 12.1 9.4 76 2.1 W 7 11 4 6 1022.3 1022.3 0.0
25/01:30pm 13.4 12.2 9.5 77 2.0 NW 6 9 3 5 1022.4 1022.5 0.0
25/01:23pm 13.0 12.1 9.1 77 2.0 NW 4 9 2 5 1022.5 1022.6 0.0
25/01:00pm 12.5 11.6 9.1 80 1.7 N 4 7 2 4 1022.7 1022.8 0.0
25/12:54pm 12.5 12.0 9.3 81 1.6 NNW 2 7 1 4 1022.8 1022.9 0.0
25/12:30pm 12.5 12.4 9.5 82 1.5 CALM 0 0 0 0 1022.9 1023.0 0.0
25/12:00pm 11.9 11.8 9.3 84 1.3 CALM 0 0 0 0 1023.3 1023.4 0.0
25/11:30am 11.3 11.1 9.2 87 1.1 CALM 0 7 0 4 1023.7 1023.8 0.0
25/11:27am 11.3 11.2 9.4 88 1.0 CALM 0 0 0 0 1023.7 1023.8 0.0
25/11:00am 11.1 10.5 10.3 95 0.4 SE 4 7 2 4 1023.8 1023.9 0.0
25/10:30am 10.6 10.8 10.6 100 0.0 CALM 0 0 0 0 1024.0 1024.1 0.0
25/10:00am 9.8 9.8 9.8 100 0.0 CALM 0 0 0 0 1023.8 1023.9 0.0
25/09:38am 9.5 9.4 9.5 100 0.0 CALM 0 0 0 0 1023.7 1023.8 0.0
25/09:30am 9.3 9.2 9.3 100 0.0 CALM 0 0 0 0 1023.6 1023.7 0.0
25/09:00am 8.8 8.5 8.8 100 0.0 CALM 0 0 0 0 1023.5 1023.6 0.2
25/08:30am 8.3 7.9 8.3 100 0.0 CALM 0 0 0 0 1023.4 1023.5 0.2
25/08:00am 7.9 7.4 7.9 100 0.0 CALM 0 0 0 0 1023.1 1023.2 0.2
25/07:30am 7.6 6.7 7.6 100 0.0 NE 2 6 1 3 1022.9 1023.0 0.2
25/07:00am 7.5 6.9 7.5 100 0.0 CALM 0 0 0 0 1022.7 1022.8 0.2
25/06:30am 7.2 6.6 7.2 100 0.0 CALM 0 0 0 0 1022.5 1022.6 0.2
25/06:00am 6.8 4.9 6.8 100 0.0 NNE 6 7 3 4 1021.9 1022.0 0.2
25/05:30am 6.3 5.5 6.3 100 0.0 CALM 0 0 0 0 1021.7 1021.8 0.2
25/05:00am 6.0 5.1 6.0 100 0.0 CALM 0 0 0 0 1021.6 1021.7 0.2
25/04:30am 5.4 4.4 5.4 100 0.0 CALM 0 0 0 0 1021.1 1021.2 0.2
25/04:00am 4.6 3.4 4.6 100 0.0 CALM 0 0 0 0 1021.0 1021.1 0.2
25/03:30am 5.1 4.0 5.1 100 0.0 CALM 0 0 0 0 1020.9 1021.0 0.2
25/03:19am 5.1 4.0 5.1 100 0.0 CALM 0 0 0 0 1021.0 1021.1 0.2
25/03:03am 5.0 3.9 5.0 100 0.0 CALM 0 0 0 0 1021.0 1021.1 0.2
25/03:00am 5.4 4.4 5.4 100 0.0 CALM 0 0 0 0 1021.0 1021.1 0.2
25/02:51am 5.6 4.6 5.6 100 0.0 CALM 0 0 0 0 1021.0 1021.1 0.2
25/02:46am 5.3 4.2 5.3 100 0.0 CALM 0 0 0 0 1021.0 1021.1 0.2
25/02:30am 5.8 4.8 5.8 100 0.0 CALM 0 0 0 0 1021.1 1021.2 0.2
25/02:23am 5.2 4.1 5.2 100 0.0 CALM 0 0 0 0 1021.1 1021.2 0.2
25/02:01am 5.8 4.8 5.7 99 0.0 CALM 0 0 0 0 1021.0 1021.1 0.2
25/02:00am 5.8 4.8 5.7 99 0.0 CALM 0 0 0 0 1021.1 1021.2 0.2
25/01:30am 6.3 5.5 6.3 100 0.0 CALM 0 0 0 0 1021.1 1021.2 0.2
25/01:00am 7.0 5.9 7.0 100 0.0 N 2 6 1 3 1021.1 1021.2 0.2
25/12:30am 7.0 5.2 7.0 100 0.0 WNW 6 11 3 6 1021.2 1021.3 0.2
25/12:23am 7.4 6.8 7.4 100 0.0 CALM 0 0 0 0 1021.1 1021.2 0.2
25/12:00am 7.2 6.5 7.1 99 0.0 CALM 0 0 0 0 1021.1 1021.2 0.2
 
Date/Time
EST
Temp
°C
App
Temp
°C
Dew
Point
°C
Rel
Hum
%
Delta-T
°C
Wind Press
QNH
hPa
Press
MSL
hPa
Rain since
9am
mm
Dir  Spd
km/h
Gust
km/h
Spd
kts
Gust
kts
24/11:45pm 6.6 4.4 6.3 98 0.1 NNE 7 9 4 5 1021.1 1021.2 0.2
24/11:30pm 7.3 5.3 7.0 98 0.1 E 7 7 4 4 1021.0 1021.1 0.2
24/11:00pm 8.2 7.6 7.6 96 0.3 CALM 0 0 0 0 1021.0 1021.1 0.2
24/10:30pm 9.0 7.9 8.6 97 0.2 SSE 4 7 2 4 1021.0 1021.1 0.2
24/10:00pm 9.5 9.1 8.3 92 0.6 CALM 0 0 0 0 1020.8 1020.9 0.2
24/09:30pm 10.0 9.0 8.8 92 0.6 ESE 4 7 2 4 1020.8 1020.9 0.2
24/09:00pm 9.8 8.8 8.7 93 0.5 N 4 7 2 4 1020.5 1020.6 0.2
24/08:30pm 9.8 9.5 8.7 93 0.5 CALM 0 4 0 2 1020.4 1020.5 0.2
24/08:00pm 9.2 7.4 8.1 93 0.5 ENE 7 9 4 5 1020.2 1020.3 0.2
24/07:30pm 8.7 6.7 7.2 90 0.7 W 7 7 4 4 1020.0 1020.1 0.2
24/07:00pm 9.9 9.1 8.2 89 0.8 NW 2 6 1 3 1019.8 1019.9 0.2
24/06:30pm 10.2 7.7 8.1 87 1.0 NW 11 13 6 7 1019.5 1019.6 0.2
24/06:00pm 10.5 8.4 8.1 85 1.2 NW 9 13 5 7 1019.4 1019.5 0.2
24/05:30pm 11.0 8.5 8.1 82 1.4 NW 11 13 6 7 1018.9 1019.0 0.2
24/05:00pm 12.1 10.4 8.2 77 1.9 W 7 13 4 7 1018.4 1018.5 0.2
24/04:30pm 13.2 10.6 9.3 77 2.0 WNW 13 19 7 10 1018.2 1018.3 0.2

Other Formats:

Comma delimited format used in spreadsheet applications
http://www.bom.gov.au/fwo/IDV60801/IDV60801.95896.axf

JavaScript Object Notation format (JSON) in row-major order
http://www.bom.gov.au/fwo/IDV60801/IDV60801.95896.json